Time;durP1;ratioP1;P1;durP2;ratioP2;P2;SDS_P1;SDS_P2;PMS_P1;PMS_P2;Temp;Humidity;BMP_temperature;BMP_pressure;BME280_temperature;BME280_humidity;BME280_pressure;Samples;Min_cycle;Max_cycle;Signal;HPM_P1;HPM_P2
2022/06/26 00:01:00;;;;;;;8.40;6.40;;;;;;;20.87;100.00;100779.91;5075630;28;20477;-70
2022/06/26 00:03:27;;;;;;;10.40;7.27;;;;;;;20.85;100.00;100783.03;5075559;28;20472;-70
2022/06/26 00:05:53;;;;;;;12.53;6.73;;;;;;;20.85;100.00;100783.03;5075652;28;20445;-70
2022/06/26 00:08:21;;;;;;;9.90;5.93;;;;;;;20.83;100.00;100784.53;5075574;28;20444;-70
2022/06/26 00:10:48;;;;;;;9.87;6.30;;;;;;;20.82;100.00;100786.50;5075216;28;20924;-70
2022/06/26 00:13:15;;;;;;;10.13;7.37;;;;;;;20.82;100.00;100791.22;5075038;28;20481;-70
2022/06/26 00:15:41;;;;;;;10.57;5.93;;;;;;;20.79;100.00;100801.00;5075113;28;20484;-70
2022/06/26 00:18:10;;;;;;;9.30;6.40;;;;;;;20.78;100.00;100798.63;5075409;28;20445;-71
2022/06/26 00:20:36;;;;;;;9.67;6.37;;;;;;;20.76;100.00;100801.75;5074943;28;20481;-71
2022/06/26 00:23:03;;;;;;;9.30;6.57;;;;;;;20.77;100.00;100800.56;5075283;28;20564;-72
2022/06/26 00:25:30;;;;;;;11.20;6.97;;;;;;;20.73;100.00;100799.72;5075227;28;20473;-72
2022/06/26 00:27:57;;;;;;;7.83;6.60;;;;;;;20.69;100.00;100806.31;5075203;28;20441;-72
2022/06/26 00:30:24;;;;;;;8.63;7.00;;;;;;;20.66;100.00;100805.06;5075117;28;20540;-71
2022/06/26 00:32:50;;;;;;;7.67;6.57;;;;;;;20.64;100.00;100801.91;5075031;28;20548;-71
2022/06/26 00:35:18;;;;;;;11.00;7.27;;;;;;;20.58;100.00;100806.88;5074701;28;20444;-71
2022/06/26 00:37:46;;;;;;;9.13;6.33;;;;;;;20.60;100.00;100806.53;5075065;28;20540;-71
2022/06/26 00:40:13;;;;;;;28.03;6.90;;;;;;;20.59;100.00;100804.94;5074611;28;20997;-71
2022/06/26 00:42:39;;;;;;;8.13;6.80;;;;;;;20.58;100.00;100808.84;5074840;28;20568;-71
2022/06/26 00:45:07;;;;;;;9.47;6.63;;;;;;;20.57;100.00;100810.00;5074876;28;20451;-72
2022/06/26 00:47:34;;;;;;;11.33;7.80;;;;;;;20.56;100.00;100802.91;5074431;28;20520;-72
2022/06/26 00:50:00;;;;;;;10.70;6.40;;;;;;;20.52;100.00;100805.59;5074477;28;21018;-71
2022/06/26 00:52:29;;;;;;;8.77;6.40;;;;;;;20.49;100.00;100805.50;5074575;28;21050;-71
2022/06/26 00:54:56;;;;;;;7.70;5.63;;;;;;;20.46;100.00;100801.53;5074679;28;20450;-72
2022/06/26 00:57:23;;;;;;;11.80;6.70;;;;;;;20.44;100.00;100803.03;5074583;28;20451;-72
2022/06/26 00:59:49;;;;;;;9.47;7.27;;;;;;;20.44;100.00;100811.28;5074565;28;20528;-70
2022/06/26 01:02:16;;;;;;;12.50;7.23;;;;;;;20.35;100.00;100806.00;5074255;28;20499;-72
2022/06/26 01:04:43;;;;;;;10.47;7.43;;;;;;;20.36;100.00;100810.34;5074454;28;20445;-72
2022/06/26 01:07:10;;;;;;;13.00;7.30;;;;;;;20.33;100.00;100811.06;5073748;28;21030;-72
2022/06/26 01:09:38;;;;;;;10.27;7.50;;;;;;;20.30;100.00;100807.09;5074321;28;20430;-72
2022/06/26 01:12:05;;;;;;;12.97;6.93;;;;;;;20.29;100.00;100812.97;5074017;28;20572;-71
2022/06/26 01:14:32;;;;;;;8.60;7.53;;;;;;;20.27;100.00;100818.81;5074011;28;20946;-71
2022/06/26 01:16:59;;;;;;;10.03;7.23;;;;;;;20.23;100.00;100815.22;5074256;28;20445;-71
2022/06/26 01:19:27;;;;;;;7.73;6.00;;;;;;;20.20;100.00;100817.88;5074056;28;20820;-71
2022/06/26 01:21:54;;;;;;;7.90;6.47;;;;;;;20.17;100.00;100813.88;5073643;28;20576;-70
2022/06/26 01:24:21;;;;;;;6.87;5.90;;;;;;;20.15;100.00;100818.94;5073691;28;20499;-71
2022/06/26 01:26:48;;;;;;;7.90;6.40;;;;;;;20.09;100.00;100823.13;5073998;28;20477;-71
2022/06/26 01:29:15;;;;;;;10.93;6.20;;;;;;;20.11;100.00;100809.81;5073931;28;20450;-70
2022/06/26 01:31:42;;;;;;;9.53;6.97;;;;;;;20.09;100.00;100823.91;5073917;28;20491;-70
2022/06/26 01:34:10;;;;;;;10.40;7.17;;;;;;;20.07;100.00;100826.25;5073872;28;20524;-71
2022/06/26 01:36:37;;;;;;;7.90;6.80;;;;;;;20.08;100.00;100824.28;5073815;28;20437;-71
2022/06/26 01:39:05;;;;;;;7.67;6.33;;;;;;;20.06;100.00;100829.38;5073751;28;20524;-71
2022/06/26 01:41:33;;;;;;;12.13;6.93;;;;;;;20.01;100.00;100830.44;5072869;28;20485;-71
2022/06/26 01:44:00;;;;;;;6.63;5.60;;;;;;;20.00;100.00;100822.53;5073685;28;20445;-70
2022/06/26 01:46:26;;;;;;;8.53;7.10;;;;;;;19.95;100.00;100826.34;5073649;28;20552;-71
2022/06/26 01:48:53;;;;;;;11.70;6.90;;;;;;;19.97;100.00;100828.78;5073314;28;20429;-71
2022/06/26 01:51:20;;;;;;;10.47;6.90;;;;;;;19.94;100.00;100830.28;5073469;28;20472;-70
2022/06/26 01:53:47;;;;;;;11.30;7.17;;;;;;;19.90;100.00;100827.44;5073247;28;20807;-71
2022/06/26 01:56:13;;;;;;;11.40;7.00;;;;;;;19.90;100.00;100832.94;5073463;28;20796;-71
2022/06/26 01:58:41;;;;;;;10.20;7.37;;;;;;;19.91;100.00;100829.03;5073481;28;20532;-71
2022/06/26 02:01:08;;;;;;;8.20;6.93;;;;;;;19.89;100.00;100825.06;5073364;28;20536;-71
2022/06/26 02:03:35;;;;;;;11.93;6.77;;;;;;;19.86;100.00;100832.06;5073360;28;20832;-72
2022/06/26 02:06:01;;;;;;;14.60;7.90;;;;;;;19.82;100.00;100822.13;5073412;28;20441;-75
2022/06/26 02:08:28;;;;;;;15.17;7.77;;;;;;;19.81;100.00;100824.09;5073438;28;20469;-71
2022/06/26 02:13:43;;;;;;;9.70;7.23;;;;;;;19.77;100.00;100817.72;5072925;28;20460;-71
2022/06/26 02:16:14;;;;;;;10.33;7.10;;;;;;;19.74;100.00;100825.88;5073296;28;20445;-71
2022/06/26 02:18:42;;;;;;;8.43;7.17;;;;;;;19.74;100.00;100829.41;5072577;28;20529;-71
2022/06/26 02:21:10;;;;;;;10.80;8.40;;;;;;;19.76;100.00;100831.81;5072734;28;20528;-70
2022/06/26 02:23:38;;;;;;;10.67;7.70;;;;;;;19.77;100.00;100820.47;5073183;28;20544;-71
2022/06/26 02:26:06;;;;;;;8.33;6.77;;;;;;;19.77;100.00;100834.19;5072863;28;20531;-71
2022/06/26 02:28:34;;;;;;;8.60;6.57;;;;;;;19.78;100.00;100835.00;5073232;28;20461;-71
2022/06/26 02:31:00;;;;;;;8.07;6.90;;;;;;;19.65;100.00;100829.59;5073149;28;20520;-71
2022/06/26 02:33:29;;;;;;;9.50;7.70;;;;;;;19.70;100.00;100830.47;5072983;28;20536;-70
2022/06/26 02:35:55;;;;;;;10.53;6.20;;;;;;;19.70;100.00;100838.72;5073190;28;20437;-70
2022/06/26 02:38:22;;;;;;;11.13;7.63;;;;;;;19.71;100.00;100841.13;5073133;28;20498;-71
2022/06/26 02:40:49;;;;;;;8.80;6.93;;;;;;;19.73;100.00;100843.53;5073069;28;20528;-71
2022/06/26 02:43:16;;;;;;;10.73;7.00;;;;;;;19.74;100.00;100845.91;5072920;28;20580;-71
2022/06/26 02:45:42;;;;;;;9.40;6.93;;;;;;;19.70;100.00;100845.06;5073050;28;20448;-71
2022/06/26 02:48:09;;;;;;;7.50;6.37;;;;;;;19.70;100.00;100852.47;5072997;28;20520;-71
2022/06/26 02:50:37;;;;;;;9.93;7.90;;;;;;;19.61;100.00;100844.41;5072641;28;20437;-70
2022/06/26 02:53:05;;;;;;;9.00;6.40;;;;;;;19.60;100.00;100840.03;5072893;28;20461;-72
2022/06/26 02:55:32;;;;;;;10.77;7.50;;;;;;;19.63;100.00;100839.38;5072953;28;20536;-72
2022/06/26 02:57:58;;;;;;;7.43;6.10;;;;;;;19.65;100.00;100848.03;5072918;28;20528;-71
2022/06/26 03:00:25;;;;;;;8.30;6.43;;;;;;;19.59;100.00;100843.94;5072830;28;20437;-70
2022/06/26 03:02:52;;;;;;;6.40;5.17;;;;;;;19.60;100.00;100840.88;5072443;28;20969;-72
2022/06/26 03:05:19;;;;;;;7.47;6.53;;;;;;;19.59;100.00;100844.75;5072492;28;20520;-71
2022/06/26 03:07:47;;;;;;;6.53;5.70;;;;;;;19.55;100.00;100840.31;5072490;28;20544;-72
2022/06/26 03:10:13;;;;;;;11.00;7.47;;;;;;;19.59;100.00;100841.19;5072641;28;20441;-72
2022/06/26 03:12:45;;;;;;;11.20;7.13;;;;;;;19.61;100.00;100852.66;5072603;28;20610;-71
2022/06/26 03:15:12;;;;;;;10.00;7.57;;;;;;;19.61;100.00;100852.66;5072692;28;20441;-71
2022/06/26 03:17:39;;;;;;;7.73;6.40;;;;;;;19.62;100.00;100851.53;5072708;28;20454;-72
2022/06/26 03:20:08;;;;;;;13.10;7.07;;;;;;;19.59;100.00;100844.75;5072653;28;20440;-70
2022/06/26 03:22:34;;;;;;;9.90;7.03;;;;;;;19.64;100.00;100851.94;5072463;28;20485;-72
2022/06/26 03:25:03;;;;;;;13.03;7.20;;;;;;;19.64;100.00;100852.75;5072301;28;20532;-73
2022/06/26 03:27:30;;;;;;;11.47;7.10;;;;;;;19.68;100.00;100852.84;5072492;28;20529;-73
2022/06/26 03:29:57;;;;;;;10.00;7.23;;;;;;;19.73;100.00;100860.00;5072696;28;20480;-73
2022/06/26 03:32:23;;;;;;;10.90;8.13;;;;;;;19.80;100.00;100858.25;5076143;28;20540;-73
2022/06/26 03:34:50;;;;;;;8.70;6.90;;;;;;;19.87;100.00;100863.88;5075890;28;20433;-72
2022/06/26 03:37:17;;;;;;;10.00;6.93;;;;;;;19.94;100.00;100859.72;5076135;28;20441;-72
2022/06/26 03:39:43;;;;;;;11.10;6.53;;;;;;;19.99;100.00;100853.94;5075845;28;20446;-72
2022/06/26 03:42:11;;;;;;;10.77;7.10;;;;;;;20.05;100.00;100858.78;5075883;28;21014;-72
2022/06/26 03:44:38;;;;;;;8.67;6.90;;;;;;;20.13;100.00;100855.06;5076017;28;20476;-72
2022/06/26 03:47:05;;;;;;;16.80;8.63;;;;;;;20.20;100.00;100868.19;5076061;28;20873;-72
2022/06/26 03:49:31;;;;;;;8.13;6.73;;;;;;;20.26;100.00;100863.97;5075844;28;20521;-73
2022/06/26 03:51:58;;;;;;;8.97;6.77;;;;;;;20.34;100.00;100867.69;5075814;28;20449;-72
2022/06/26 03:54:26;;;;;;;12.57;7.57;;;;;;;20.40;100.00;100867.03;5075502;28;20880;-73
2022/06/26 03:56:52;;;;;;;12.90;7.13;;;;;;;20.51;100.00;100872.81;5075523;28;20433;-72
2022/06/26 03:59:20;;;;;;;10.30;6.30;;;;;;;20.59;100.00;100885.56;5075757;28;20528;-72
2022/06/26 04:01:47;;;;;;;9.50;7.30;;;;;;;20.68;100.00;100888.09;5075663;28;21028;-73
2022/06/26 04:04:14;;;;;;;9.40;7.20;;;;;;;20.77;100.00;100883.19;5075643;28;20445;-73
2022/06/26 04:06:40;;;;;;;10.37;6.80;;;;;;;20.85;100.00;100887.66;5075371;28;20506;-73
2022/06/26 04:09:07;;;;;;;11.73;7.60;;;;;;;20.95;100.00;100877.22;5075614;28;20445;-73
2022/06/26 04:11:34;;;;;;;12.90;8.60;;;;;;;21.02;100.00;100885.59;5075250;28;20451;-73
2022/06/26 04:14:00;;;;;;;15.13;8.53;;;;;;;21.09;100.00;100889.28;5075554;28;20532;-72
2022/06/26 04:16:28;;;;;;;11.00;8.00;;;;;;;21.21;100.00;100890.31;5075453;28;20570;-73
2022/06/26 04:18:55;;;;;;;12.87;9.17;;;;;;;21.29;100.00;100884.53;5075504;28;20447;-77
2022/06/26 04:21:22;;;;;;;13.07;10.90;;;;;;;21.45;100.00;100901.00;5075399;28;20793;-72
2022/06/26 04:23:48;;;;;;;12.93;9.20;;;;;;;21.59;100.00;100904.00;5074887;28;20573;-73
2022/06/26 04:26:15;;;;;;;10.93;9.53;;;;;;;21.73;100.00;100903.44;5075266;28;20954;-73
2022/06/26 04:28:41;;;;;;;12.27;10.00;;;;;;;21.86;100.00;100906.78;5074925;28;20481;-73
2022/06/26 04:31:08;;;;;;;13.10;9.60;;;;;;;21.97;100.00;100915.25;5076158;28;20437;-77
2022/06/26 04:33:36;;;;;;;11.93;9.40;;;;;;;22.04;100.00;100907.06;5078894;28;20552;-79
2022/06/26 04:36:03;;;;;;;12.17;8.40;;;;;;;22.10;100.00;100911.13;5074803;28;20965;-71
2022/06/26 04:38:29;;;;;;;10.37;7.40;;;;;;;22.11;99.68;100904.41;5075001;28;20441;-71
2022/06/26 04:40:56;;;;;;;11.20;7.37;;;;;;;22.09;98.54;100904.81;5074696;28;20437;-71
2022/06/26 04:43:23;;;;;;;14.83;8.10;;;;;;;22.00;97.04;100907.03;5073812;28;20982;-71
2022/06/26 04:45:49;;;;;;;9.60;7.50;;;;;;;21.97;96.81;100902.25;5074860;28;20439;-71
2022/06/26 04:48:16;;;;;;;11.60;8.53;;;;;;;21.99;97.81;100904.63;5074525;28;20536;-71
2022/06/26 04:50:44;;;;;;;9.27;7.07;;;;;;;22.04;99.18;100901.53;5074767;28;20446;-70
2022/06/26 04:53:11;;;;;;;9.67;7.43;;;;;;;22.08;99.63;100910.66;5076035;28;20457;-71
2022/06/26 04:55:38;;;;;;;10.10;6.80;;;;;;;22.12;100.00;100917.06;5074682;28;20484;-71
2022/06/26 04:58:04;;;;;;;10.10;7.40;;;;;;;22.17;100.00;100909.25;5074841;28;20520;-71
2022/06/26 05:00:31;;;;;;;7.50;6.50;;;;;;;22.20;100.00;100913.25;5074621;28;20452;-71
2022/06/26 05:02:58;;;;;;;10.03;6.50;;;;;;;22.24;100.00;100916.88;5074347;28;20492;-71
2022/06/26 05:05:24;;;;;;;10.70;7.37;;;;;;;22.28;100.00;100912.19;5074499;28;20552;-71
2022/06/26 05:07:52;;;;;;;10.83;6.73;;;;;;;22.32;100.00;100913.03;5074086;28;20445;-71
2022/06/26 05:10:19;;;;;;;8.90;6.83;;;;;;;22.35;100.00;100917.00;5074046;28;21010;-70
2022/06/26 05:12:47;;;;;;;9.83;7.30;;;;;;;22.36;100.00;100911.13;5073933;28;21054;-71
2022/06/26 05:15:13;;;;;;;11.37;7.67;;;;;;;22.37;100.00;100915.47;5074148;28;20440;-70
2022/06/26 05:17:40;;;;;;;9.67;7.40;;;;;;;22.36;100.00;100915.84;5074199;28;20534;-71
2022/06/26 05:20:07;;;;;;;8.07;6.87;;;;;;;22.38;100.00;100905.22;5073871;28;20448;-69
2022/06/26 05:22:34;;;;;;;10.70;7.77;;;;;;;22.34;100.00;100913.44;5073971;28;20487;-72
2022/06/26 05:25:02;;;;;;;7.93;6.20;;;;;;;22.36;100.00;100922.16;5074109;28;20520;-72
2022/06/26 05:27:28;;;;;;;9.63;6.90;;;;;;;22.34;100.00;100927.25;5073963;28;20452;-72
2022/06/26 05:29:55;;;;;;;9.00;6.80;;;;;;;22.35;100.00;100922.53;5073660;28;20894;-72
2022/06/26 05:32:22;;;;;;;12.03;7.57;;;;;;;22.34;100.00;100909.91;5073839;28;20552;-72
2022/06/26 05:34:48;;;;;;;8.07;6.20;;;;;;;22.36;100.00;100919.41;5074117;28;20513;-72
2022/06/26 05:37:15;;;;;;;7.37;6.13;;;;;;;22.38;100.00;100919.03;5073824;28;20537;-71
2022/06/26 05:39:41;;;;;;;8.97;6.83;;;;;;;22.41;100.00;100921.84;5073874;28;20441;-72
2022/06/26 05:42:09;;;;;;;8.67;6.60;;;;;;;22.44;100.00;100930.53;5073256;28;20915;-72
2022/06/26 05:44:36;;;;;;;8.87;6.70;;;;;;;22.46;100.00;100923.47;5073437;28;20477;-72
2022/06/26 05:47:04;;;;;;;8.40;6.97;;;;;;;22.49;100.00;100928.28;5073865;28;20528;-72
2022/06/26 05:49:31;;;;;;;10.00;7.73;;;;;;;22.52;100.00;100932.22;5073612;28;20536;-72
2022/06/26 05:51:58;;;;;;;14.07;7.90;;;;;;;22.57;99.83;100929.94;5073535;28;20465;-72
2022/06/26 05:54:24;;;;;;;8.70;6.43;;;;;;;22.66;99.13;100926.88;5072730;28;20437;-72
2022/06/26 05:56:51;;;;;;;11.80;7.60;;;;;;;22.74;98.40;100931.34;5073550;28;20562;-72
2022/06/26 05:59:19;;;;;;;10.53;7.63;;;;;;;22.87;96.28;100929.13;5073421;28;20520;-71
2022/06/26 06:01:45;;;;;;;10.53;8.07;;;;;;;22.99;95.79;100936.41;5073399;28;20462;-72
2022/06/26 06:04:12;;;;;;;12.40;7.50;;;;;;;23.16;93.90;100935.81;5073400;28;20578;-72
2022/06/26 06:06:39;;;;;;;6.50;5.83;;;;;;;23.36;92.04;100937.19;5073049;28;20540;-72
2022/06/26 06:09:05;;;;;;;7.07;6.07;;;;;;;23.53;90.93;100935.00;5073423;28;20448;-72
2022/06/26 06:11:32;;;;;;;9.83;6.37;;;;;;;23.67;90.96;100940.69;5073120;28;20476;-72
2022/06/26 06:13:59;;;;;;;13.77;6.87;;;;;;;23.84;87.75;100945.59;5073374;28;20426;-72
2022/06/26 06:16:27;;;;;;;8.50;6.87;;;;;;;24.01;86.48;100948.88;5073012;28;20444;-73
2022/06/26 06:18:53;;;;;;;9.20;5.90;;;;;;;24.08;86.42;100946.16;5072998;28;20438;-73
2022/06/26 06:21:20;;;;;;;6.80;5.40;;;;;;;24.19;84.79;100935.97;5072832;28;20945;-73
2022/06/26 06:23:47;;;;;;;6.20;5.53;;;;;;;24.35;83.20;100947.53;5073239;28;20483;-73
2022/06/26 06:26:14;;;;;;;5.87;4.60;;;;;;;24.44;84.25;100946.41;5073134;28;20437;-72
2022/06/26 06:28:41;;;;;;;6.03;4.10;;;;;;;24.53;83.36;100955.19;5072886;28;20926;-72
2022/06/26 06:31:08;;;;;;;4.73;4.00;;;;;;;24.67;79.86;100958.81;5073128;28;20453;-72
2022/06/26 06:33:36;;;;;;;5.13;4.03;;;;;;;24.82;76.35;100954.13;5073044;28;20456;-72
2022/06/26 06:36:02;;;;;;;8.73;4.03;;;;;;;24.97;74.52;100960.53;5073126;28;20533;-73
2022/06/26 06:38:29;;;;;;;2.90;2.50;;;;;;;25.07;74.91;100965.31;5073098;28;20451;-72
2022/06/26 06:40:56;;;;;;;4.20;3.70;;;;;;;25.19;73.88;100961.44;5073092;28;20429;-73
2022/06/26 06:43:22;;;;;;;4.67;3.60;;;;;;;25.26;72.60;100961.44;5072609;28;21002;-72
2022/06/26 06:45:49;;;;;;;6.40;4.10;;;;;;;25.32;73.70;100965.44;5073101;28;20479;-73
2022/06/26 06:48:15;;;;;;;4.00;3.60;;;;;;;25.46;73.31;100963.88;5072645;28;20437;-74
2022/06/26 06:50:43;;;;;;;5.00;3.40;;;;;;;25.50;72.76;100954.38;5072707;28;20437;-73
2022/06/26 06:53:10;;;;;;;5.97;3.40;;;;;;;25.53;74.44;100961.88;5072837;28;20457;-73
2022/06/26 06:55:36;;;;;;;7.03;4.00;;;;;;;25.58;72.74;100966.25;5072903;28;20476;-73
2022/06/26 06:58:03;;;;;;;5.07;3.30;;;;;;;25.76;70.60;100967.09;5072844;28;20465;-73
2022/06/26 07:00:30;;;;;;;7.00;4.10;;;;;;;25.83;69.99;100958.78;5072848;28;20532;-72
2022/06/26 07:03:00;;;;;;;4.90;4.30;;;;;;;25.88;70.38;100963.16;5072732;28;20572;-73
2022/06/26 07:05:27;;;;;;;5.90;3.87;;;;;;;25.95;70.74;100967.91;5073449;28;20512;-73
2022/06/26 07:07:55;;;;;;;5.37;3.67;;;;;;;26.00;69.43;100970.28;5076732;28;20441;-73
2022/06/26 07:10:22;;;;;;;3.40;2.90;;;;;;;26.08;67.77;100966.31;5076374;28;20524;-73
2022/06/26 07:12:53;;;;;;;3.37;2.60;;;;;;;26.22;65.46;100976.63;5076040;28;20481;-74
2022/06/26 07:15:19;;;;;;;3.40;2.70;;;;;;;26.30;65.08;100976.22;5076511;28;20448;-73
2022/06/26 07:17:46;;;;;;;3.53;2.67;;;;;;;26.35;64.61;100975.81;5076545;28;20437;-73
2022/06/26 07:20:13;;;;;;;4.27;2.97;;;;;;;26.40;64.33;100980.16;5076491;28;20443;-73
2022/06/26 07:22:40;;;;;;;3.30;2.53;;;;;;;26.39;66.33;100967.47;5075976;28;20504;-73
2022/06/26 07:25:09;;;;;;;3.30;2.63;;;;;;;26.44;65.14;100972.66;5076333;28;20955;-73
2022/06/26 07:27:36;;;;;;;2.90;2.60;;;;;;;26.45;64.74;100967.88;5076346;28;20441;-73
2022/06/26 07:30:03;;;;;;;2.60;2.40;;;;;;;26.50;63.70;100971.03;5076317;28;20524;-73
2022/06/26 07:32:30;;;;;;;3.33;2.80;;;;;;;26.58;63.03;100967.03;5076163;28;20449;-73
2022/06/26 07:34:56;;;;;;;3.20;2.90;;;;;;;26.62;64.23;100972.59;5076480;28;20512;-73
2022/06/26 07:37:23;;;;;;;3.03;2.70;;;;;;;26.63;63.91;100963.84;5076176;28;20437;-73
2022/06/26 07:39:49;;;;;;;3.27;2.97;;;;;;;26.64;64.35;100959.09;5076112;28;21022;-72
2022/06/26 07:42:17;;;;;;;3.20;2.53;;;;;;;26.73;63.59;100956.66;5076038;28;20567;-72
2022/06/26 07:44:44;;;;;;;4.80;3.43;;;;;;;26.82;64.50;100959.81;5075975;28;20571;-73
2022/06/26 07:47:10;;;;;;;3.30;2.70;;;;;;;26.90;63.46;100964.16;5076037;28;20467;-73
2022/06/26 07:49:37;;;;;;;3.73;2.90;;;;;;;26.88;64.38;100954.63;5076030;28;20467;-72
2022/06/26 07:52:04;;;;;;;3.03;2.73;;;;;;;26.90;63.51;100958.59;5075586;28;20449;-72
2022/06/26 07:54:31;;;;;;;3.70;3.07;;;;;;;26.77;66.15;100963.00;5075836;28;20528;-73
2022/06/26 07:56:58;;;;;;;3.30;2.93;;;;;;;26.84;63.88;100963.00;5076119;28;20536;-73
2022/06/26 07:59:26;;;;;;;4.30;3.20;;;;;;;26.88;65.08;100963.78;5075513;28;21004;-73
2022/06/26 08:01:53;;;;;;;5.80;3.00;;;;;;;26.89;66.82;100959.78;5075717;28;20464;-73
2022/06/26 08:04:19;;;;;;;3.70;2.97;;;;;;;26.90;66.97;100961.38;5075647;28;20477;-73
2022/06/26 08:06:46;;;;;;;3.13;2.70;;;;;;;26.95;66.38;100945.47;5075461;28;21012;-73
2022/06/26 08:09:13;;;;;;;3.63;3.07;;;;;;;27.06;64.60;100962.91;5075758;28;20467;-76
2022/06/26 08:11:39;;;;;;;5.30;3.47;;;;;;;27.14;64.12;100959.72;5075603;28;20463;-75
2022/06/26 08:14:06;;;;;;;5.00;3.47;;;;;;;27.26;62.15;100960.44;5075562;28;20921;-76
2022/06/26 08:16:34;;;;;;;4.33;3.43;;;;;;;27.32;64.21;100958.81;5075499;28;20442;-76
2022/06/26 08:19:00;;;;;;;3.33;3.03;;;;;;;27.41;65.52;100961.94;5075014;28;20453;-75
2022/06/26 08:24:11;;;;;;;6.13;3.73;;;;;;;27.50;65.04;100958.69;5075794;28;20546;-76
2022/06/26 08:26:38;;;;;;;5.30;3.13;;;;;;;27.48;64.02;100956.31;5075522;28;20522;-76
2022/06/26 08:29:04;;;;;;;3.50;3.20;;;;;;;27.58;62.86;100951.84;5075961;28;20536;-77
2022/06/26 08:31:31;;;;;;;3.70;3.30;;;;;;;27.70;63.42;100951.38;5075006;28;20467;-77
2022/06/26 08:33:59;;;;;;;3.40;2.60;;;;;;;27.94;58.85;100962.78;5074944;28;20439;-76
2022/06/26 08:36:26;;;;;;;4.50;2.57;;;;;;;28.07;59.27;100961.06;5074765;28;20450;-72
2022/06/26 08:38:53;;;;;;;3.47;2.37;;;;;;;28.23;59.57;100952.94;5074723;28;21042;-72
2022/06/26 08:41:24;;;;;;;3.07;2.60;;;;;;;28.41;58.96;100959.13;5074779;28;20521;-72
2022/06/26 08:43:52;;;;;;;3.00;2.57;;;;;;;28.53;58.03;100957.81;5074630;28;20466;-72
2022/06/26 08:46:22;;;;;;;2.60;2.37;;;;;;;28.68;56.03;100952.84;5074239;28;20488;-71
2022/06/26 08:48:52;;;;;;;3.33;3.03;;;;;;;28.72;54.98;100956.41;5074865;28;20808;-73
2022/06/26 08:51:20;;;;;;;2.50;2.30;;;;;;;28.67;55.81;100959.66;5074341;28;20437;-73
2022/06/26 08:53:47;;;;;;;2.90;2.60;;;;;;;28.61;56.35;100967.69;5074989;28;20520;-73
2022/06/26 08:56:13;;;;;;;3.97;3.10;;;;;;;28.55;57.33;100969.34;5074697;28;20532;-73
2022/06/26 08:58:40;;;;;;;3.90;3.50;;;;;;;28.54;54.16;100964.97;5074587;28;20451;-73
2022/06/26 09:01:07;;;;;;;2.87;2.53;;;;;;;28.51;57.17;100970.56;5074600;28;20444;-73
2022/06/26 09:03:34;;;;;;;3.20;2.90;;;;;;;28.57;58.60;100977.28;5074056;28;20503;-72
2022/06/26 09:06:01;;;;;;;5.60;2.73;;;;;;;28.61;58.67;100964.09;5074485;28;20446;-75
2022/06/26 09:08:30;;;;;;;4.90;3.63;;;;;;;28.77;53.67;100960.72;5074334;28;20448;-76
2022/06/26 09:10:57;;;;;;;3.60;3.20;;;;;;;28.92;53.91;100960.13;5074088;28;20480;-75
2022/06/26 09:13:24;;;;;;;3.27;2.97;;;;;;;28.99;55.53;100961.28;5074038;28;20469;-76
2022/06/26 09:15:51;;;;;;;3.37;2.47;;;;;;;29.03;56.79;100964.81;5074630;28;20818;-76
2022/06/26 09:18:17;;;;;;;3.20;2.90;;;;;;;29.04;55.02;100963.59;5074422;28;20433;-76
2022/06/26 09:20:52;;;;;;;3.80;3.10;;;;;;;29.09;56.53;100966.72;5074143;28;20529;-75
2022/06/26 09:23:19;;;;;;;4.23;3.50;;;;;;;29.20;53.91;100972.16;5074011;28;20460;-76
2022/06/26 09:25:47;;;;;;;3.40;3.03;;;;;;;29.31;55.11;100967.22;5076294;28;20536;-79
2022/06/26 09:28:17;;;;;;;4.70;3.87;;;;;;;29.37;55.93;100959.94;5076973;28;20526;-78
2022/06/26 09:30:49;;;;;;;3.23;2.93;;;;;;;29.44;51.76;100963.84;5077551;28;21022;-79
2022/06/26 09:33:15;;;;;;;2.97;2.67;;;;;;;29.46;51.37;100961.44;5076015;28;20461;-76
2022/06/26 09:35:42;;;;;;;2.93;2.73;;;;;;;29.44;52.20;100967.44;5073919;28;20445;-75
2022/06/26 09:38:09;;;;;;;3.70;3.07;;;;;;;29.51;54.59;100961.72;5073883;28;20437;-75
2022/06/26 09:40:36;;;;;;;3.70;3.20;;;;;;;29.56;54.60;100966.06;5073515;28;21037;-76
2022/06/26 09:43:04;;;;;;;3.20;2.90;;;;;;;29.62;53.88;100964.41;5073713;28;20458;-75
2022/06/26 09:45:39;;;;;;;3.20;2.90;;;;;;;29.67;53.70;100974.31;5073603;28;20835;-76
2022/06/26 09:48:09;;;;;;;3.03;2.57;;;;;;;29.56;54.36;100968.88;5073728;28;20456;-76
2022/06/26 09:50:36;;;;;;;3.60;3.20;;;;;;;29.54;55.27;100968.47;5073437;28;20429;-77
2022/06/26 09:53:04;;;;;;;4.43;3.03;;;;;;;29.55;55.95;100968.09;5073582;28;20831;-76
2022/06/26 09:55:31;;;;;;;2.80;2.50;;;;;;;29.56;55.27;100972.44;5073585;28;20449;-76
2022/06/26 09:57:59;;;;;;;3.83;3.23;;;;;;;29.64;55.04;100967.53;5073496;28;20903;-76
2022/06/26 10:00:29;;;;;;;4.70;3.20;;;;;;;29.66;55.68;100965.09;5073383;28;20826;-76
2022/06/26 10:08:28;;;;;;;3.37;2.83;;;;;;;29.67;53.45;100971.50;5073531;28;21061;-76
2022/06/26 10:10:59;;;;;;;3.47;3.00;;;;;;;29.75;54.55;100976.56;5073260;28;20494;-76
2022/06/26 10:13:28;;;;;;;9.60;4.27;;;;;;;29.79;54.94;100980.06;5073037;28;20484;-75
2022/06/26 10:16:11;;;;;;;3.40;3.00;;;;;;;29.73;54.11;100981.75;5073049;28;20977;-76
2022/06/26 10:18:53;;;;;;;3.43;3.13;;;;;;;29.65;55.70;100980.28;5073438;28;20516;-76
2022/06/26 10:21:20;;;;;;;4.83;3.63;;;;;;;29.48;54.95;100973.72;5073465;28;20929;-76
2022/06/26 10:23:46;;;;;;;3.10;2.80;;;;;;;29.35;54.46;100970.75;5072976;28;21050;-76
2022/06/26 10:26:15;;;;;;;4.63;3.07;;;;;;;29.23;55.21;100979.69;5072876;28;20934;-75
2022/06/26 10:28:59;;;;;;;5.07;3.30;;;;;;;29.07;56.26;100977.50;5074626;28;20449;-78
2022/06/26 10:31:30;;;;;;;4.47;3.90;;;;;;;29.00;56.51;100979.59;5076033;28;20875;-78
2022/06/26 10:34:09;;;;;;;3.43;2.80;;;;;;;28.94;56.38;100979.22;5077273;28;20449;-78
2022/06/26 10:36:35;;;;;;;3.73;2.83;;;;;;;29.03;56.54;100971.19;5076558;28;20932;-77
2022/06/26 10:39:04;;;;;;;2.93;2.63;;;;;;;29.24;57.14;100977.69;5075711;28;20520;-77
2022/06/26 10:44:32;;;;;;;3.80;3.30;;;;;;;29.64;54.06;100973.13;5081555;28;20612;-78
2022/06/26 10:47:00;;;;;;;3.20;2.87;;;;;;;29.96;54.12;100971.81;5081011;28;20448;-78
2022/06/26 10:49:27;;;;;;;2.87;2.57;;;;;;;30.30;52.82;100971.66;5078917;28;20544;-77
2022/06/26 10:51:55;;;;;;;3.80;3.40;;;;;;;30.65;52.89;100967.38;5079303;28;20548;-77
2022/06/26 10:54:23;;;;;;;4.47;3.37;;;;;;;30.84;51.99;100972.19;5077452;28;20518;-77
2022/06/26 10:57:12;;;;;;;3.57;2.90;;;;;;;30.94;50.40;100958.41;5077731;28;20520;-77
2022/06/26 10:59:40;;;;;;;3.50;3.20;;;;;;;30.89;51.18;100962.50;5076896;28;20918;-77
2022/06/26 11:02:10;;;;;;;3.80;2.83;;;;;;;30.81;52.15;100958.28;5076377;28;20907;-75
2022/06/26 11:04:44;;;;;;;2.97;2.67;;;;;;;30.72;51.35;100952.47;5078757;28;20544;-78
2022/06/26 11:07:14;;;;;;;3.53;3.03;;;;;;;30.75;50.57;100960.00;5076566;28;20903;-76
2022/06/26 11:09:40;;;;;;;3.57;2.63;;;;;;;30.70;49.66;100957.69;5076583;28;20445;-75
2022/06/26 11:12:07;;;;;;;3.87;2.93;;;;;;;30.80;49.98;100954.69;5076092;28;20479;-75
2022/06/26 11:14:34;;;;;;;4.90;2.87;;;;;;;30.84;48.02;100960.22;5076417;28;20874;-74
2022/06/26 11:17:00;;;;;;;3.70;2.83;;;;;;;31.04;50.91;100954.63;5076554;28;20453;-74
2022/06/26 11:19:30;;;;;;;3.70;2.77;;;;;;;31.26;49.37;100950.13;5076341;28;20440;-75
2022/06/26 11:22:05;;;;;;;3.30;2.50;;;;;;;31.37;46.55;100953.47;5077624;28;20564;-77
2022/06/26 11:24:32;;;;;;;4.13;2.50;;;;;;;31.61;48.41;100953.31;5076308;28;20461;-75
2022/06/26 11:26:59;;;;;;;6.40;3.40;;;;;;;32.02;48.54;100944.31;5076060;28;20441;-77
2022/06/26 11:29:25;;;;;;;3.17;2.47;;;;;;;32.43;47.59;100942.03;5075860;28;20440;-74
2022/06/26 11:31:52;;;;;;;2.83;2.40;;;;;;;32.81;44.75;100944.97;5076352;28;20899;-81
2022/06/26 11:34:20;;;;;;;4.70;2.67;;;;;;;33.22;46.00;100954.56;5076210;28;20536;-76